Etusivu
METAR-TAF:

METAR-TAF

Lentoasemat :

Chongqing Jiangbein kansainvälinen lentoasema

Chongqing, Kiina

Leveyspiiri: 29-31N, Pituuspiiri: 106-29E, korkeus merenpinnasta: 351 m

Tämänhetkinen sää

Tämä raportti tehtiin 49 minuuttia sitten, kello 15.00 UTC
Tuuli 4 kn kaakosta, vaihdellen idän ja etelän/kaakon välillä
Lämpötila 34°C
Kosteus 44%
Ilmanpaine 1002 hPa
Näkyvyys 10 km tai enemmän
ei pilviä alle 1500 m:ssä eikä cumulonimbus-pilviä

METAR: ZUCK 231500Z 13002MPS 100V160 CAVOK 34/20 Q1002 NOSIG

Aika: 23:49 (15:49 UTC)

Sääennuste

Tämä raportti tehtiin 6 tuntia ja 44 minuuttia sitten, kello 09.05 UTC
Ennuste voimassa 23. päivästä klo 12 UTC - 24. päivään klo 12 UTC
Tuuli 6 kn kaakosta
Näkyvyys: 6000 m
Hajanaisia pilviä 4000 ft:n korkeudessa

TAF: ZUCK 230905Z 2312/2412 13003MPS 6000 SCT040 TX39/2408Z TN29/2321Z

Säähavainnot ja -ennusteet yli 4000 lentoasemalta (METAR- ja TAF-raportit).

Käytössä olevat sääasemat on merkitty karttaan keltaisilla ja punaisilla pisteillä.

Aseta hiiri pisteen päälle nähdäksesi sääaseman nimen.

Klikkaa sitten nähdäksesi säähavainnot ja -ennusteet.

Kartan vaihtaminen: klikkaa mustalla rastilla varustettuja vihreitä pisteitä, niin voit zoomata sisään; viivalla varustettua vihreää pistettä, niin voit zoomata ulos tai vihreitä nuolia, niin pääset viereisille kartoille.


METAR-TAF: